Time;durP1;ratioP1;P1;durP2;ratioP2;P2;SDS_P1;SDS_P2;PMS_P1;PMS_P2;Temp;Humidity;BMP_temperature;BMP_pressure;BME280_temperature;BME280_humidity;BME280_pressure;Samples;Min_cycle;Max_cycle;Signal;HPM_P1;HPM_P2
2022/11/04 00:01:14;;;;;;;19.60;10.05;;;;;;;;;;6182036;23;20724;-89
2022/11/04 00:03:41;;;;;;;33.00;15.10;;;;;;;;;;6182586;23;20013;-89
2022/11/04 00:06:08;;;;;;;24.52;13.45;;;;;;;;;;6206678;23;20066;-89
2022/11/04 00:08:47;;;;;;;31.50;15.73;;;;;;;;;;6187663;22;20016;-90
2022/11/04 00:13:57;;;;;;;23.80;12.50;;;;;;;;;;6210218;23;20048;-89
2022/11/04 00:19:11;;;;;;;21.45;11.02;;;;;;;;;;6207249;23;20095;-91
2022/11/04 00:29:52;;;;;;;16.93;9.17;;;;;;;;;;6209585;23;20047;-90
2022/11/04 00:35:03;;;;;;;20.50;11.25;;;;;;;;;;6210438;23;20066;-89
2022/11/04 00:37:29;;;;;;;26.27;11.90;;;;;;;;;;6207829;23;20341;-89
2022/11/04 00:39:55;;;;;;;21.48;10.38;;;;;;;;;;6183123;23;20023;-89
2022/11/04 00:42:21;;;;;;;19.15;9.48;;;;;;;;;;6208424;23;20329;-89
2022/11/04 00:44:47;;;;;;;20.88;11.73;;;;;;;;;;6232788;23;20051;-90
2022/11/04 00:47:13;;;;;;;14.48;7.30;;;;;;;;;;6207655;23;20031;-88
2022/11/04 00:49:39;;;;;;;20.27;9.35;;;;;;;;;;6211583;23;20043;-89
2022/11/04 00:52:05;;;;;;;13.52;6.68;;;;;;;;;;6211432;23;20071;-88
2022/11/04 00:54:31;;;;;;;9.75;4.88;;;;;;;;;;6211337;23;20087;-89
2022/11/04 00:56:57;;;;;;;7.78;4.72;;;;;;;;;;6211158;23;20012;-89
2022/11/04 00:59:23;;;;;;;4.25;2.85;;;;;;;;;;6210704;23;20395;-88
2022/11/04 01:01:50;;;;;;;6.13;3.10;;;;;;;;;;6208901;23;20047;-88
2022/11/04 01:04:16;;;;;;;5.25;2.70;;;;;;;;;;6209340;23;20760;-88
2022/11/04 01:06:42;;;;;;;3.95;2.78;;;;;;;;;;6206188;23;20069;-88
2022/11/04 01:09:09;;;;;;;4.05;1.77;;;;;;;;;;6237341;22;20449;-88
2022/11/04 01:11:35;;;;;;;4.03;2.03;;;;;;;;;;6236700;23;20787;-88
2022/11/04 01:14:01;;;;;;;2.35;1.48;;;;;;;;;;6210496;23;20340;-89
2022/11/04 01:16:27;;;;;;;4.05;1.15;;;;;;;;;;6211590;23;20611;-90
2022/11/04 01:18:55;;;;;;;1.40;0.80;;;;;;;;;;6212548;23;20055;-89
2022/11/04 01:21:21;;;;;;;2.03;0.82;;;;;;;;;;6236308;23;20482;-89
2022/11/04 01:23:49;;;;;;;2.17;1.17;;;;;;;;;;6232793;23;20534;-89
2022/11/04 01:26:17;;;;;;;0.93;0.75;;;;;;;;;;6210105;23;20094;-89
2022/11/04 01:28:43;;;;;;;2.28;0.90;;;;;;;;;;6235093;23;20625;-89
2022/11/04 01:31:11;;;;;;;3.28;0.73;;;;;;;;;;6232871;23;20005;-89
2022/11/04 01:33:37;;;;;;;2.67;1.00;;;;;;;;;;6210869;23;20432;-88
2022/11/04 01:36:04;;;;;;;4.03;1.48;;;;;;;;;;6235401;23;20036;-89
2022/11/04 01:38:30;;;;;;;8.80;1.23;;;;;;;;;;6235611;23;20500;-89
2022/11/04 01:40:56;;;;;;;0.95;0.75;;;;;;;;;;6211152;23;20511;-89
2022/11/04 01:43:24;;;;;;;4.28;1.13;;;;;;;;;;6235643;23;20008;-88
2022/11/04 01:45:52;;;;;;;3.00;0.47;;;;;;;;;;6233396;23;20009;-88
2022/11/04 01:48:37;;;;;;;1.60;0.57;;;;;;;;;;6210205;23;20471;-89
2022/11/04 01:51:03;;;;;;;1.83;0.45;;;;;;;;;;6210207;23;20013;-89
2022/11/04 01:53:40;;;;;;;1.90;0.60;;;;;;;;;;6210678;23;20012;-88
2022/11/04 01:56:10;;;;;;;4.22;0.88;;;;;;;;;;6235086;23;20535;-88
2022/11/04 01:58:38;;;;;;;3.40;0.55;;;;;;;;;;6233892;23;20005;-89
2022/11/04 02:01:04;;;;;;;10.43;0.90;;;;;;;;;;6233267;23;20429;-89
2022/11/04 02:03:34;;;;;;;2.22;0.88;;;;;;;;;;6234427;23;20434;-89
2022/11/04 02:06:01;;;;;;;5.47;0.88;;;;;;;;;;6234090;23;20476;-89
2022/11/04 02:08:28;;;;;;;4.55;0.98;;;;;;;;;;6222841;22;20023;-88
2022/11/04 02:11:05;;;;;;;6.63;0.80;;;;;;;;;;6245755;22;20025;-88
2022/11/04 02:13:32;;;;;;;2.80;0.77;;;;;;;;;;6248764;22;20497;-88
2022/11/04 02:16:00;;;;;;;2.47;0.63;;;;;;;;;;6270832;22;20412;-88
2022/11/04 02:18:44;;;;;;;7.32;0.40;;;;;;;;;;6272370;22;20004;-88
2022/11/04 02:21:22;;;;;;;3.83;0.60;;;;;;;;;;6243669;22;20012;-89
2022/11/04 02:23:51;;;;;;;5.50;0.85;;;;;;;;;;6245240;22;20050;-89
2022/11/04 02:26:17;;;;;;;3.97;0.60;;;;;;;;;;6245097;22;20082;-88
2022/11/04 02:28:46;;;;;;;2.00;0.55;;;;;;;;;;6245118;22;20000;-88
2022/11/04 02:31:24;;;;;;;5.28;0.60;;;;;;;;;;6243264;22;20010;-88
2022/11/04 02:34:04;;;;;;;3.78;0.65;;;;;;;;;;6245430;22;20109;-88
2022/11/04 02:36:48;;;;;;;6.03;1.45;;;;;;;;;;6244085;22;20015;-88
2022/11/04 02:39:33;;;;;;;5.43;0.52;;;;;;;;;;6272347;22;20078;-88
2022/11/04 02:42:09;;;;;;;4.07;0.40;;;;;;;;;;6246910;22;20060;-88
2022/11/04 02:44:37;;;;;;;5.32;0.52;;;;;;;;;;6246158;22;20023;-88
2022/11/04 02:47:06;;;;;;;9.25;0.95;;;;;;;;;;6244510;22;20317;-88
2022/11/04 02:49:40;;;;;;;6.30;0.70;;;;;;;;;;6245454;22;20011;-88
2022/11/04 02:52:09;;;;;;;0.30;0.13;;;;;;;;;;6271768;22;20007;-88
2022/11/04 02:54:41;;;;;;;11.05;0.70;;;;;;;;;;6246064;22;20015;-90
2022/11/04 02:57:09;;;;;;;3.45;0.70;;;;;;;;;;6244774;22;20018;-88
2022/11/04 02:59:38;;;;;;;7.00;0.80;;;;;;;;;;6245288;22;20427;-88
2022/11/04 03:02:06;;;;;;;10.00;0.90;;;;;;;;;;6245210;22;20004;-88
2022/11/04 03:04:34;;;;;;;6.30;1.63;;;;;;;;;;6243760;22;20014;-88
2022/11/04 03:07:01;;;;;;;1.08;0.47;;;;;;;;;;6245272;22;20663;-88
2022/11/04 03:09:32;;;;;;;7.07;0.77;;;;;;;;;;6225716;22;20500;-88
2022/11/04 03:12:09;;;;;;;11.10;1.08;;;;;;;;;;6236270;23;20220;-89
2022/11/04 03:14:39;;;;;;;2.03;0.50;;;;;;;;;;6207770;23;20332;-88
2022/11/04 03:17:08;;;;;;;4.25;0.68;;;;;;;;;;6234508;23;20541;-87
2022/11/04 03:19:44;;;;;;;10.95;0.93;;;;;;;;;;6234849;23;20009;-88
2022/11/04 03:22:18;;;;;;;8.15;1.08;;;;;;;;;;6211050;23;20012;-88
2022/11/04 03:24:45;;;;;;;3.10;1.13;;;;;;;;;;6234192;23;20016;-88
2022/11/04 03:27:17;;;;;;;4.57;0.70;;;;;;;;;;6232966;23;20428;-88
2022/11/04 03:29:46;;;;;;;6.97;0.65;;;;;;;;;;6209556;23;20000;-88
2022/11/04 03:32:24;;;;;;;8.30;1.25;;;;;;;;;;6232950;23;20408;-89
2022/11/04 03:34:51;;;;;;;4.53;0.80;;;;;;;;;;6232758;23;20011;-88
2022/11/04 03:37:17;;;;;;;5.57;0.93;;;;;;;;;;6206961;23;20091;-88
2022/11/04 03:39:43;;;;;;;8.45;0.82;;;;;;;;;;6208195;23;20047;-87
2022/11/04 03:42:20;;;;;;;10.38;1.02;;;;;;;;;;6232448;23;20005;-88
2022/11/04 03:44:50;;;;;;;3.85;1.27;;;;;;;;;;6232905;23;20020;-89
2022/11/04 03:47:17;;;;;;;2.47;0.57;;;;;;;;;;6229587;23;20011;-88
2022/11/04 03:49:51;;;;;;;7.32;1.05;;;;;;;;;;6228005;23;20055;-87
2022/11/04 03:52:17;;;;;;;3.20;0.98;;;;;;;;;;6205037;23;20039;-89
2022/11/04 03:54:44;;;;;;;3.05;0.77;;;;;;;;;;6206887;23;20047;-88
2022/11/04 03:57:16;;;;;;;15.55;1.42;;;;;;;;;;6230310;23;20008;-89
2022/11/04 04:00:14;;;;;;;7.82;0.93;;;;;;;;;;6233334;23;20444;-89
2022/11/04 04:02:46;;;;;;;4.68;1.08;;;;;;;;;;6157903;23;20005;-88
2022/11/04 04:05:16;;;;;;;14.38;0.88;;;;;;;;;;6208037;23;20012;-88
2022/11/04 04:07:53;;;;;;;6.82;0.55;;;;;;;;;;6233140;23;20006;-88
2022/11/04 04:10:38;;;;;;;6.88;0.88;;;;;;;;;;6236914;22;20043;-88
2022/11/04 04:13:17;;;;;;;7.88;0.65;;;;;;;;;;6208016;23;20004;-88
2022/11/04 04:15:56;;;;;;;12.05;1.40;;;;;;;;;;6232078;23;20008;-88
2022/11/04 04:18:38;;;;;;;4.25;0.95;;;;;;;;;;6231077;23;20004;-87
2022/11/04 04:21:05;;;;;;;6.80;1.30;;;;;;;;;;6231860;23;20393;-87
2022/11/04 04:29:05;;;;;;;3.50;1.10;;;;;;;;;;6207163;23;20015;-87
2022/11/04 04:31:48;;;;;;;1.23;0.70;;;;;;;;;;6231720;23;20005;-86
2022/11/04 04:34:19;;;;;;;3.25;0.75;;;;;;;;;;6231146;23;20047;-86
2022/11/04 04:36:48;;;;;;;5.20;1.33;;;;;;;;;;6207402;23;20010;-87
2022/11/04 04:45:03;;;;;;;5.43;0.80;;;;;;;;;;6208108;23;20019;-87
2022/11/04 04:47:35;;;;;;;6.15;1.48;;;;;;;;;;6205840;23;20350;-87
2022/11/04 04:50:01;;;;;;;12.07;1.63;;;;;;;;;;6229494;23;20009;-87
2022/11/04 04:52:29;;;;;;;8.70;1.95;;;;;;;;;;6231634;23;20026;-87
2022/11/04 04:54:55;;;;;;;7.72;1.65;;;;;;;;;;6231517;23;20029;-87
2022/11/04 04:57:21;;;;;;;7.10;0.98;;;;;;;;;;6207717;23;20011;-87
2022/11/04 04:59:47;;;;;;;6.00;0.75;;;;;;;;;;6207766;23;20009;-88
2022/11/04 05:02:13;;;;;;;6.45;1.33;;;;;;;;;;6207250;23;20020;-88
2022/11/04 05:04:40;;;;;;;2.55;1.02;;;;;;;;;;6206441;23;20435;-88
2022/11/04 05:07:13;;;;;;;6.15;1.02;;;;;;;;;;6231177;23;20082;-88
2022/11/04 05:09:46;;;;;;;9.13;1.20;;;;;;;;;;6234733;22;20384;-89
2022/11/04 05:12:20;;;;;;;4.97;0.55;;;;;;;;;;6234162;23;20332;-89
2022/11/04 05:14:46;;;;;;;6.40;1.02;;;;;;;;;;6209480;23;20012;-88
2022/11/04 05:17:12;;;;;;;5.00;0.70;;;;;;;;;;6210045;23;20008;-89
2022/11/04 05:19:38;;;;;;;5.70;0.60;;;;;;;;;;6233919;23;20337;-88
2022/11/04 05:22:04;;;;;;;7.40;0.95;;;;;;;;;;6209608;23;20107;-89
2022/11/04 05:24:30;;;;;;;1.30;0.47;;;;;;;;;;6206724;23;20013;-89
2022/11/04 05:26:57;;;;;;;2.35;0.57;;;;;;;;;;6232753;23;20437;-88
2022/11/04 05:29:23;;;;;;;8.75;0.90;;;;;;;;;;6205674;23;20008;-89
2022/11/04 05:31:49;;;;;;;3.20;0.73;;;;;;;;;;6205962;23;20086;-88
2022/11/04 05:34:15;;;;;;;5.25;1.10;;;;;;;;;;6206182;23;20009;-88
2022/11/04 05:36:41;;;;;;;11.35;1.50;;;;;;;;;;6231691;23;20071;-88
2022/11/04 05:39:07;;;;;;;12.98;3.67;;;;;;;;;;6231235;23;20087;-89
2022/11/04 05:41:34;;;;;;;7.07;2.03;;;;;;;;;;6232077;23;20455;-87
2022/11/04 05:44:01;;;;;;;4.28;0.50;;;;;;;;;;6233492;23;20008;-86
2022/11/04 05:46:27;;;;;;;3.60;0.45;;;;;;;;;;6231021;23;20464;-87
2022/11/04 05:48:54;;;;;;;1.73;0.77;;;;;;;;;;6209581;23;20437;-86
2022/11/04 05:51:22;;;;;;;6.28;0.65;;;;;;;;;;6208446;23;20028;-87
2022/11/04 05:53:48;;;;;;;1.98;0.45;;;;;;;;;;6232427;23;20341;-86
2022/11/04 05:56:14;;;;;;;2.13;0.90;;;;;;;;;;6233046;23;20340;-87
2022/11/04 05:58:40;;;;;;;4.82;0.93;;;;;;;;;;6208670;23;20008;-87
2022/11/04 06:01:11;;;;;;;4.03;0.75;;;;;;;;;;6204569;23;20019;-87
2022/11/04 06:03:37;;;;;;;2.53;0.63;;;;;;;;;;6208883;23;20392;-87
2022/11/04 06:06:03;;;;;;;6.32;0.73;;;;;;;;;;6204824;23;20433;-86
2022/11/04 06:08:30;;;;;;;9.95;1.08;;;;;;;;;;6232906;23;20013;-86
2022/11/04 06:10:56;;;;;;;1.10;0.63;;;;;;;;;;6210117;22;20312;-87
2022/11/04 06:13:22;;;;;;;3.42;0.90;;;;;;;;;;6233440;23;20345;-87
2022/11/04 06:15:48;;;;;;;4.22;1.13;;;;;;;;;;6209416;23;20842;-87
2022/11/04 06:18:14;;;;;;;9.23;1.08;;;;;;;;;;6210828;23;20009;-86
2022/11/04 06:20:40;;;;;;;3.35;0.70;;;;;;;;;;6209256;23;20012;-86
2022/11/04 06:23:09;;;;;;;2.70;0.80;;;;;;;;;;6211359;23;20055;-87
2022/11/04 06:25:35;;;;;;;3.75;0.77;;;;;;;;;;6235871;23;20013;-87
2022/11/04 06:28:01;;;;;;;1.13;0.57;;;;;;;;;;6215033;23;20036;-86
2022/11/04 06:30:28;;;;;;;5.35;0.85;;;;;;;;;;6211826;23;20024;-87
2022/11/04 06:32:56;;;;;;;5.80;0.60;;;;;;;;;;6213268;23;20453;-87
2022/11/04 06:35:22;;;;;;;5.18;1.00;;;;;;;;;;6208783;23;20008;-87
2022/11/04 06:37:48;;;;;;;7.07;0.75;;;;;;;;;;6237620;23;20015;-88
2022/11/04 06:40:14;;;;;;;7.20;1.02;;;;;;;;;;6234005;23;20341;-87
2022/11/04 06:42:41;;;;;;;5.75;1.30;;;;;;;;;;6209425;23;20480;-87
2022/11/04 06:45:10;;;;;;;8.23;0.95;;;;;;;;;;6208569;23;20024;-86
2022/11/04 06:47:37;;;;;;;5.82;1.17;;;;;;;;;;6236421;23;20009;-86
2022/11/04 06:50:04;;;;;;;5.30;1.10;;;;;;;;;;6210227;23;20441;-86
2022/11/04 06:52:32;;;;;;;3.30;1.02;;;;;;;;;;6212205;23;20012;-85
2022/11/04 06:55:01;;;;;;;3.85;1.38;;;;;;;;;;6210601;23;20019;-85
2022/11/04 06:57:28;;;;;;;12.40;1.27;;;;;;;;;;6234553;23;20008;-85
2022/11/04 06:59:54;;;;;;;4.40;1.17;;;;;;;;;;6208000;23;20013;-85
2022/11/04 07:02:20;;;;;;;4.65;1.00;;;;;;;;;;6210092;23;20391;-85
2022/11/04 07:04:46;;;;;;;6.18;1.33;;;;;;;;;;6210923;23;20067;-85
2022/11/04 07:07:13;;;;;;;6.90;1.55;;;;;;;;;;6210805;23;20013;-86
2022/11/04 07:09:42;;;;;;;5.32;1.23;;;;;;;;;;6234266;22;20017;-86
2022/11/04 07:12:08;;;;;;;3.75;1.23;;;;;;;;;;6207906;23;20018;-86
2022/11/04 07:14:43;;;;;;;5.38;1.35;;;;;;;;;;6208409;23;20023;-86
2022/11/04 07:17:09;;;;;;;2.75;1.25;;;;;;;;;;6232720;23;20008;-87
2022/11/04 07:19:35;;;;;;;6.80;1.30;;;;;;;;;;6208552;23;20147;-86
2022/11/04 07:22:01;;;;;;;5.55;1.17;;;;;;;;;;6211075;23;20427;-86
2022/11/04 07:24:28;;;;;;;8.00;1.17;;;;;;;;;;6208799;23;20017;-86
2022/11/04 07:26:55;;;;;;;3.40;1.25;;;;;;;;;;6210904;23;20005;-86
2022/11/04 07:29:21;;;;;;;11.27;1.67;;;;;;;;;;6210830;23;20488;-86
2022/11/04 07:31:47;;;;;;;4.13;1.17;;;;;;;;;;6210321;23;20096;-86
2022/11/04 07:34:13;;;;;;;10.63;1.52;;;;;;;;;;6211081;23;20044;-86
2022/11/04 07:36:41;;;;;;;3.40;1.17;;;;;;;;;;6211724;23;20016;-87
2022/11/04 07:39:10;;;;;;;5.55;1.10;;;;;;;;;;6236489;23;20032;-85
2022/11/04 07:41:39;;;;;;;4.85;1.35;;;;;;;;;;6209212;23;20016;-86
2022/11/04 07:44:05;;;;;;;8.40;1.23;;;;;;;;;;6212165;23;20397;-86
2022/11/04 07:46:32;;;;;;;4.72;1.10;;;;;;;;;;6235350;23;20357;-86
2022/11/04 07:48:59;;;;;;;3.05;1.20;;;;;;;;;;6213522;23;20000;-86
2022/11/04 07:51:38;;;;;;;2.45;1.30;;;;;;;;;;6239130;23;20001;-86
2022/11/04 07:54:06;;;;;;;4.82;1.13;;;;;;;;;;6239612;23;20011;-87
2022/11/04 07:56:38;;;;;;;6.60;0.98;;;;;;;;;;6212264;23;20095;-87
2022/11/04 07:59:09;;;;;;;9.88;2.40;;;;;;;;;;6238789;23;20011;-87
2022/11/04 08:01:36;;;;;;;2.63;1.17;;;;;;;;;;6211691;23;20005;-87
2022/11/04 08:04:06;;;;;;;4.10;1.20;;;;;;;;;;6211267;23;20020;-89
2022/11/04 08:06:41;;;;;;;5.53;1.20;;;;;;;;;;6209543;23;20441;-87
2022/11/04 08:09:12;;;;;;;5.63;1.15;;;;;;;;;;6235359;23;20052;-87
2022/11/04 08:11:38;;;;;;;6.30;2.08;;;;;;;;;;6274359;22;20018;-87
2022/11/04 08:14:05;;;;;;;0.40;0.40;;;;;;;;;;6246705;22;20013;-87
2022/11/04 08:16:32;;;;;;;3.95;1.30;;;;;;;;;;6219470;22;20438;-86
2022/11/04 08:19:00;;;;;;;7.32;1.60;;;;;;;;;;6244832;22;20058;-87
2022/11/04 08:21:27;;;;;;;4.95;1.17;;;;;;;;;;6220718;22;20007;-87
2022/11/04 08:23:55;;;;;;;1.10;0.95;;;;;;;;;;6271138;22;20023;-87
2022/11/04 08:26:22;;;;;;;5.75;1.58;;;;;;;;;;6245834;22;20004;-86
2022/11/04 08:28:53;;;;;;;8.00;1.40;;;;;;;;;;6245025;22;20467;-87
2022/11/04 08:31:22;;;;;;;4.18;1.30;;;;;;;;;;6244260;22;20379;-86
2022/11/04 08:33:50;;;;;;;7.28;1.63;;;;;;;;;;6272102;22;20340;-88
2022/11/04 08:36:21;;;;;;;8.85;1.80;;;;;;;;;;6244671;22;20072;-87
2022/11/04 08:38:47;;;;;;;2.92;1.27;;;;;;;;;;6244121;22;20083;-87
2022/11/04 08:41:15;;;;;;;2.15;1.13;;;;;;;;;;6220274;22;20139;-87
2022/11/04 08:43:41;;;;;;;2.13;0.95;;;;;;;;;;6245288;22;20073;-87
2022/11/04 08:46:09;;;;;;;1.85;0.90;;;;;;;;;;6245379;22;20008;-86
2022/11/04 08:48:35;;;;;;;4.20;1.13;;;;;;;;;;6243655;22;20031;-87
2022/11/04 08:51:03;;;;;;;3.40;1.35;;;;;;;;;;6272057;22;20449;-87
2022/11/04 08:53:29;;;;;;;4.97;1.45;;;;;;;;;;6243034;22;20012;-88
2022/11/04 08:55:55;;;;;;;6.50;1.23;;;;;;;;;;6243974;22;20004;-88
2022/11/04 08:58:22;;;;;;;14.02;2.58;;;;;;;;;;6243511;22;19999;-87
2022/11/04 09:00:54;;;;;;;10.43;1.40;;;;;;;;;;6271608;22;20079;-86
2022/11/04 09:03:20;;;;;;;3.05;1.17;;;;;;;;;;6221468;22;20008;-86
2022/11/04 09:05:48;;;;;;;7.65;0.75;;;;;;;;;;6245169;22;20053;-87
2022/11/04 09:08:15;;;;;;;4.70;1.50;;;;;;;;;;6220541;22;20348;-87
2022/11/04 09:10:52;;;;;;;5.05;1.00;;;;;;;;;;6201296;22;20020;-86
2022/11/04 09:13:24;;;;;;;8.18;0.63;;;;;;;;;;6211580;23;20005;-86
2022/11/04 09:15:51;;;;;;;8.05;1.20;;;;;;;;;;6207067;23;20070;-86
2022/11/04 09:18:17;;;;;;;3.30;0.98;;;;;;;;;;6234833;23;20079;-86
2022/11/04 09:20:43;;;;;;;9.13;1.45;;;;;;;;;;6231798;23;20039;-87
2022/11/04 09:23:09;;;;;;;8.63;1.67;;;;;;;;;;6208178;23;20013;-86
2022/11/04 09:26:05;;;;;;;2.28;1.02;;;;;;;;;;6185105;22;20485;-92
2022/11/04 09:31:12;;;;;;;7.10;1.02;;;;;;;;;;6205071;23;20042;-88
2022/11/04 09:33:38;;;;;;;4.20;0.80;;;;;;;;;;6181827;23;20510;-88
2022/11/04 09:36:04;;;;;;;4.80;0.93;;;;;;;;;;6157040;23;20083;-88
2022/11/04 09:38:34;;;;;;;8.73;1.17;;;;;;;;;;6210944;23;20001;-88
2022/11/04 09:41:00;;;;;;;5.32;1.30;;;;;;;;;;6208465;23;20486;-88
2022/11/04 09:43:45;;;;;;;2.45;1.00;;;;;;;;;;6182745;23;20035;-88
2022/11/04 09:46:13;;;;;;;4.28;1.23;;;;;;;;;;6181787;23;20356;-88
2022/11/04 09:48:50;;;;;;;8.63;1.10;;;;;;;;;;6183336;23;20016;-88
2022/11/04 09:51:19;;;;;;;5.78;1.23;;;;;;;;;;6182597;23;20004;-88
2022/11/04 09:53:47;;;;;;;11.50;2.10;;;;;;;;;;6212789;23;20642;-88
2022/11/04 09:56:20;;;;;;;7.13;2.25;;;;;;;;;;6180947;23;20664;-89
2022/11/04 09:58:46;;;;;;;7.50;1.83;;;;;;;;;;6212884;23;20004;-89
2022/11/04 10:01:19;;;;;;;6.03;1.90;;;;;;;;;;6184380;23;20011;-88
2022/11/04 10:04:09;;;;;;;6.07;1.83;;;;;;;;;;6184810;23;20071;-88
2022/11/04 10:06:50;;;;;;;8.05;1.90;;;;;;;;;;6183496;23;20063;-89
2022/11/04 10:09:22;;;;;;;6.53;1.58;;;;;;;;;;6210088;23;20000;-89
2022/11/04 10:11:57;;;;;;;5.13;2.10;;;;;;;;;;6183514;23;20084;-89
2022/11/04 10:14:29;;;;;;;6.38;1.77;;;;;;;;;;6183490;23;20036;-89
2022/11/04 10:17:10;;;;;;;10.05;2.30;;;;;;;;;;6205005;23;20012;-89
2022/11/04 10:19:36;;;;;;;12.60;2.15;;;;;;;;;;6181194;23;20580;-89
2022/11/04 10:22:32;;;;;;;7.65;1.80;;;;;;;;;;6179967;23;20009;-89
2022/11/04 10:25:04;;;;;;;3.58;2.00;;;;;;;;;;6154910;23;20031;-89
2022/11/04 10:27:36;;;;;;;8.05;2.25;;;;;;;;;;6181610;23;20032;-89
2022/11/04 10:30:19;;;;;;;2.97;2.10;;;;;;;;;;6177297;22;20404;-89
2022/11/04 10:32:58;;;;;;;3.63;2.10;;;;;;;;;;6176293;23;20009;-89
2022/11/04 10:35:30;;;;;;;5.95;2.03;;;;;;;;;;6176892;23;20016;-89
2022/11/04 10:37:57;;;;;;;3.58;1.05;;;;;;;;;;6177350;23;20384;-88
2022/11/04 10:40:27;;;;;;;5.78;2.17;;;;;;;;;;6176397;23;20004;-89
2022/11/04 10:42:55;;;;;;;5.50;1.38;;;;;;;;;;6177392;23;20116;-88
2022/11/04 10:45:26;;;;;;;5.40;1.77;;;;;;;;;;6152484;23;20437;-89
2022/11/04 10:47:59;;;;;;;4.47;2.28;;;;;;;;;;6178525;23;20428;-89
2022/11/04 10:50:36;;;;;;;4.63;2.20;;;;;;;;;;6176796;23;20443;-89
2022/11/04 10:53:09;;;;;;;6.10;2.25;;;;;;;;;;6175943;23;20330;-88
2022/11/04 10:55:42;;;;;;;8.57;1.38;;;;;;;;;;6177210;23;20017;-89
2022/11/04 10:58:14;;;;;;;3.13;2.38;;;;;;;;;;6177324;23;20372;-89
2022/11/04 11:00:41;;;;;;;6.90;2.15;;;;;;;;;;6177075;23;20005;-89
2022/11/04 11:03:27;;;;;;;6.93;1.73;;;;;;;;;;6175968;23;20017;-89
2022/11/04 11:05:53;;;;;;;;;;;;;;;;;;6175121;23;20092;-89
2022/11/04 11:08:45;;;;;;;4.55;1.50;;;;;;;;;;6175865;23;20355;-89
2022/11/04 11:11:13;;;;;;;6.90;2.08;;;;;;;;;;6173201;23;20092;-89
2022/11/04 11:13:44;;;;;;;9.88;2.00;;;;;;;;;;6176611;23;20013;-89
2022/11/04 11:16:24;;;;;;;7.38;1.73;;;;;;;;;;6176037;23;20001;-89
2022/11/04 11:19:09;;;;;;;12.45;1.67;;;;;;;;;;6176269;23;20008;-89
2022/11/04 11:21:43;;;;;;;6.85;2.00;;;;;;;;;;6175938;23;20302;-89
2022/11/04 11:24:20;;;;;;;5.15;1.70;;;;;;;;;;6176736;23;20333;-89
2022/11/04 11:26:49;;;;;;;8.15;1.55;;;;;;;;;;6175271;23;20009;-88
2022/11/04 11:29:20;;;;;;;6.53;2.00;;;;;;;;;;6155614;22;20013;-88
2022/11/04 11:31:47;;;;;;;6.38;1.50;;;;;;;;;;6179491;23;20009;-89
2022/11/04 11:34:21;;;;;;;7.43;2.47;;;;;;;;;;6157165;23;20113;-89
2022/11/04 11:36:48;;;;;;;6.50;1.40;;;;;;;;;;6207642;23;20008;-89
2022/11/04 11:39:20;;;;;;;6.25;1.00;;;;;;;;;;6181601;23;20009;-88
2022/11/04 11:41:55;;;;;;;2.13;0.52;;;;;;;;;;6181628;23;20032;-89
2022/11/04 11:44:30;;;;;;;3.40;0.93;;;;;;;;;;6207550;23;20030;-89
2022/11/04 11:47:00;;;;;;;2.72;1.10;;;;;;;;;;6180349;23;20051;-89
2022/11/04 11:49:29;;;;;;;7.90;0.98;;;;;;;;;;6180534;23;20084;-89
2022/11/04 11:51:55;;;;;;;3.55;0.88;;;;;;;;;;6208621;23;20507;-89
2022/11/04 11:54:26;;;;;;;4.50;1.00;;;;;;;;;;6206770;23;20411;-89
2022/11/04 11:56:56;;;;;;;4.65;0.75;;;;;;;;;;6207420;23;20016;-88
2022/11/04 11:59:22;;;;;;;4.20;1.00;;;;;;;;;;6181047;23;20016;-89
2022/11/04 12:01:51;;;;;;;6.25;1.50;;;;;;;;;;6179360;23;20088;-89
2022/11/04 12:04:19;;;;;;;5.00;1.42;;;;;;;;;;6179760;23;20340;-88
2022/11/04 12:07:03;;;;;;;2.63;1.10;;;;;;;;;;6180111;23;20443;-89
2022/11/04 12:09:37;;;;;;;7.25;0.88;;;;;;;;;;6181151;23;20008;-89
2022/11/04 12:12:09;;;;;;;7.97;1.17;;;;;;;;;;6180748;23;20016;-89
2022/11/04 12:14:54;;;;;;;7.32;1.48;;;;;;;;;;6180565;23;20368;-89
2022/11/04 12:17:50;;;;;;;4.70;1.23;;;;;;;;;;6205333;23;20009;-89
2022/11/04 12:20:35;;;;;;;9.85;1.42;;;;;;;;;;6179087;23;20013;-89
2022/11/04 12:23:04;;;;;;;8.43;1.00;;;;;;;;;;6180968;23;20012;-89
2022/11/04 12:25:39;;;;;;;4.50;1.20;;;;;;;;;;6180960;23;20009;-89
2022/11/04 12:28:09;;;;;;;2.63;1.07;;;;;;;;;;6181736;23;20012;-89
2022/11/04 12:31:05;;;;;;;8.90;1.50;;;;;;;;;;6177364;22;20275;-89
2022/11/04 12:33:43;;;;;;;6.30;1.50;;;;;;;;;;6097379;23;20044;-89
2022/11/04 12:36:19;;;;;;;4.53;2.78;;;;;;;;;;6175080;23;20346;-89
2022/11/04 12:38:48;;;;;;;11.13;2.00;;;;;;;;;;6175149;23;20016;-89
2022/11/04 12:41:23;;;;;;;5.90;1.75;;;;;;;;;;6174672;23;20015;-89
2022/11/04 12:43:49;;;;;;;7.22;2.08;;;;;;;;;;6174931;23;20448;-89
2022/11/04 12:46:15;;;;;;;5.35;1.63;;;;;;;;;;6174799;23;20201;-89
2022/11/04 12:48:46;;;;;;;6.50;1.77;;;;;;;;;;6174320;23;20079;-89
2022/11/04 12:51:32;;;;;;;6.57;2.20;;;;;;;;;;6175202;23;20001;-90
2022/11/04 12:54:15;;;;;;;6.07;1.73;;;;;;;;;;6174779;23;20005;-89
2022/11/04 12:56:41;;;;;;;5.47;2.05;;;;;;;;;;6174763;23;20456;-89
2022/11/04 12:59:33;;;;;;;6.32;2.15;;;;;;;;;;6174878;23;20377;-89
2022/11/04 13:02:10;;;;;;;8.60;2.00;;;;;;;;;;6172660;23;20012;-89
2022/11/04 13:04:38;;;;;;;6.38;1.48;;;;;;;;;;6175978;23;20456;-89
2022/11/04 13:07:09;;;;;;;7.88;2.72;;;;;;;;;;6176896;23;20001;-89
2022/11/04 13:09:35;;;;;;;8.35;3.35;;;;;;;;;;6174583;23;20013;-89
2022/11/04 13:12:13;;;;;;;6.45;2.13;;;;;;;;;;6174975;23;20055;-89
2022/11/04 13:14:42;;;;;;;8.25;2.42;;;;;;;;;;6175008;23;20017;-89
2022/11/04 13:17:12;;;;;;;4.88;2.00;;;;;;;;;;6174205;23;20016;-89
2022/11/04 13:19:51;;;;;;;8.45;2.30;;;;;;;;;;6175683;23;20020;-89
2022/11/04 13:22:22;;;;;;;6.50;1.65;;;;;;;;;;6175558;23;20345;-89
2022/11/04 13:24:51;;;;;;;4.25;1.70;;;;;;;;;;6175347;23;20004;-89
2022/11/04 13:27:28;;;;;;;7.47;2.30;;;;;;;;;;6176407;23;20083;-89
2022/11/04 13:30:10;;;;;;;3.40;1.17;;;;;;;;;;6180313;22;20171;-89
2022/11/04 13:32:55;;;;;;;5.38;1.65;;;;;;;;;;6178397;23;20040;-89
2022/11/04 13:35:25;;;;;;;5.13;1.05;;;;;;;;;;6206209;23;20009;-89
2022/11/04 13:37:59;;;;;;;12.10;1.65;;;;;;;;;;6180177;23;20325;-90
2022/11/04 13:40:28;;;;;;;4.53;1.55;;;;;;;;;;6179315;23;20040;-89
2022/11/04 13:42:54;;;;;;;8.00;1.42;;;;;;;;;;6179292;23;20307;-89
2022/11/04 13:45:20;;;;;;;6.63;1.90;;;;;;;;;;6179718;23;20004;-89
2022/11/04 13:47:49;;;;;;;6.60;1.42;;;;;;;;;;6154635;23;20015;-90
2022/11/04 13:50:39;;;;;;;8.05;2.03;;;;;;;;;;6179741;23;20004;-89
2022/11/04 13:53:06;;;;;;;8.40;1.25;;;;;;;;;;6125309;23;20004;-89
2022/11/04 13:55:34;;;;;;;4.60;1.60;;;;;;;;;;6206534;23;20100;-89
2022/11/04 13:58:02;;;;;;;15.02;2.35;;;;;;;;;;6155341;23;20013;-89
2022/11/04 14:00:29;;;;;;;5.82;1.08;;;;;;;;;;6180977;23;20031;-90
2022/11/04 14:02:57;;;;;;;8.07;1.70;;;;;;;;;;6181672;23;20455;-90
2022/11/04 14:05:23;;;;;;;7.13;1.55;;;;;;;;;;6179859;23;20008;-90
2022/11/04 14:08:16;;;;;;;13.60;2.50;;;;;;;;;;6182051;23;20000;-90
2022/11/04 14:10:42;;;;;;;9.73;1.45;;;;;;;;;;6177491;23;20063;-89
2022/11/04 14:13:31;;;;;;;7.13;1.33;;;;;;;;;;6181734;23;20376;-89
2022/11/04 14:16:00;;;;;;;5.32;1.38;;;;;;;;;;6180617;23;20009;-89
2022/11/04 14:18:46;;;;;;;8.80;1.40;;;;;;;;;;6181412;23;20012;-89
2022/11/04 14:21:20;;;;;;;12.25;1.23;;;;;;;;;;6181239;23;20040;-88
2022/11/04 14:23:48;;;;;;;11.40;1.27;;;;;;;;;;6210301;23;20011;-89
2022/11/04 14:26:15;;;;;;;11.00;2.42;;;;;;;;;;6183919;23;20345;-89
2022/11/04 14:28:43;;;;;;;5.55;1.48;;;;;;;;;;6182421;23;20008;-89
2022/11/04 14:31:17;;;;;;;7.03;1.15;;;;;;;;;;6206705;22;20441;-89
2022/11/04 14:33:50;;;;;;;8.85;1.75;;;;;;;;;;6180347;23;20589;-89
2022/11/04 14:36:22;;;;;;;6.55;1.45;;;;;;;;;;6180665;23;20039;-88
2022/11/04 14:39:06;;;;;;;5.05;1.60;;;;;;;;;;6206602;23;20421;-89
2022/11/04 14:41:33;;;;;;;17.48;2.03;;;;;;;;;;6179813;23;20310;-88
2022/11/04 14:44:01;;;;;;;9.98;1.33;;;;;;;;;;6179973;23;20528;-89
2022/11/04 14:46:30;;;;;;;8.70;1.67;;;;;;;;;;6206389;23;20008;-89
2022/11/04 14:48:59;;;;;;;12.43;1.83;;;;;;;;;;6208906;23;20020;-88
2022/11/04 14:51:26;;;;;;;9.90;1.55;;;;;;;;;;6180497;23;20015;-89
2022/11/04 14:53:55;;;;;;;7.38;1.50;;;;;;;;;;6181509;23;20425;-89
2022/11/04 14:56:22;;;;;;;8.23;1.17;;;;;;;;;;6180592;23;20063;-88
2022/11/04 14:58:55;;;;;;;13.55;1.55;;;;;;;;;;6156838;23;20017;-89
2022/11/04 15:01:22;;;;;;;9.73;1.58;;;;;;;;;;6180632;23;20028;-89
2022/11/04 15:03:48;;;;;;;7.70;1.50;;;;;;;;;;6181811;23;20017;-89
2022/11/04 15:06:23;;;;;;;10.00;1.55;;;;;;;;;;6155739;23;20350;-89
2022/11/04 15:08:49;;;;;;;10.93;1.75;;;;;;;;;;6181528;23;20008;-89
2022/11/04 15:12:49;;;;;;;8.77;1.50;;;;;;;;;;6180666;23;20005;-89
2022/11/04 15:14:13;;;;;;;21.70;2.45;;;;;;;;;;6207789;23;20016;-89
2022/11/04 15:16:39;;;;;;;11.18;2.20;;;;;;;;;;6180862;23;20444;-89
2022/11/04 15:19:07;;;;;;;9.23;2.30;;;;;;;;;;6207331;23;20008;-89
2022/11/04 15:21:38;;;;;;;16.73;2.05;;;;;;;;;;6180528;23;20008;-89
2022/11/04 15:24:04;;;;;;;9.43;1.48;;;;;;;;;;6180763;23;20056;-89
2022/11/04 15:26:32;;;;;;;8.10;1.73;;;;;;;;;;6156203;23;20313;-88
2022/11/04 15:28:59;;;;;;;11.13;1.85;;;;;;;;;;6180917;23;20403;-89
2022/11/04 15:31:27;;;;;;;9.48;2.47;;;;;;;;;;6152383;23;20521;-89